Time;durP1;ratioP1;P1;durP2;ratioP2;P2;SDS_P1;SDS_P2;PMS_P1;PMS_P2;Temp;Humidity;BMP_temperature;BMP_pressure;BME280_temperature;BME280_humidity;BME280_pressure;Samples;Min_cycle;Max_cycle;Signal;HPM_P1;HPM_P2
2022/11/24 00:00:48;;;;;;;0.30;0.30;;;8.10;99.90;;;;;;4955683;28;20204;-69
2022/11/24 00:03:14;;;;;;;0.50;0.50;;;8.10;99.90;;;;;;4955559;28;20177;-69
2022/11/24 00:05:39;;;;;;;1.77;0.80;;;8.20;99.90;;;;;;4955698;28;20217;-69
2022/11/24 00:08:05;;;;;;;0.30;0.30;;;8.20;99.90;;;;;;4955745;28;20180;-68
2022/11/24 00:10:32;;;;;;;0.90;0.90;;;8.10;99.90;;;;;;4955557;28;20183;-68
2022/11/24 00:12:57;;;;;;;1.40;1.30;;;8.00;99.90;;;;;;4955764;28;20710;-69
2022/11/24 00:15:23;;;;;;;0.50;0.50;;;8.00;99.90;;;;;;4955703;28;20209;-68
2022/11/24 00:17:49;;;;;;;0.60;0.60;;;8.10;99.90;;;;;;4955445;28;20201;-69
2022/11/24 00:20:15;;;;;;;21.97;1.33;;;8.10;99.90;;;;;;4955303;28;20209;-69
2022/11/24 00:22:40;;;;;;;1.03;1.00;;;8.10;99.90;;;;;;4955954;28;20233;-69
2022/11/24 00:25:06;;;;;;;0.47;0.47;;;8.10;99.90;;;;;;4955497;28;20420;-67
2022/11/24 00:27:32;;;;;;;0.40;0.40;;;8.10;99.90;;;;;;4955581;28;20941;-69
2022/11/24 00:29:58;;;;;;;0.30;0.30;;;8.10;99.90;;;;;;4955316;28;20177;-67
2022/11/24 00:32:27;;;;;;;0.40;0.40;;;8.10;99.90;;;;;;4955628;28;20177;-70
2022/11/24 00:34:52;;;;;;;0.82;0.57;;;8.10;99.90;;;;;;4955367;28;20211;-68
2022/11/24 00:37:18;;;;;;;0.30;0.30;;;8.10;99.90;;;;;;4955296;28;20227;-68
2022/11/24 00:39:43;;;;;;;0.57;0.57;;;8.10;99.90;;;;;;4955271;28;20176;-67
2022/11/24 00:42:09;;;;;;;0.50;0.50;;;8.10;99.90;;;;;;4955457;28;20177;-67
2022/11/24 00:44:35;;;;;;;13.40;1.50;;;8.10;99.90;;;;;;4955547;28;20670;-69
2022/11/24 00:47:00;;;;;;;0.60;0.60;;;8.10;99.90;;;;;;4955445;28;20262;-69
2022/11/24 00:49:26;;;;;;;0.30;0.30;;;8.00;99.90;;;;;;4955113;28;20170;-68
2022/11/24 00:51:51;;;;;;;0.40;0.40;;;8.00;99.90;;;;;;4955198;28;20174;-69
2022/11/24 00:54:17;;;;;;;0.40;0.40;;;8.00;99.90;;;;;;4955300;28;20546;-70
2022/11/24 00:56:43;;;;;;;0.30;0.30;;;8.10;99.90;;;;;;4955143;28;20726;-69
2022/11/24 00:59:08;;;;;;;0.60;0.40;;;8.20;99.90;;;;;;4955220;28;20607;-69
2022/11/24 01:01:35;;;;;;;0.50;0.50;;;8.20;99.90;;;;;;4955218;28;20211;-69
2022/11/24 01:04:00;;;;;;;0.63;0.50;;;8.20;99.90;;;;;;4955134;28;20638;-68
2022/11/24 01:06:27;;;;;;;0.63;0.60;;;8.30;99.90;;;;;;4955105;28;20204;-68
2022/11/24 01:08:55;;;;;;;0.30;0.30;;;8.20;99.90;;;;;;4955156;28;20412;-69
2022/11/24 01:11:59;;;;;;;0.40;0.40;;;8.20;99.90;;;;;;4955277;29;20187;-69
2022/11/24 01:14:15;;;;;;;0.40;0.40;;;8.20;99.90;;;;;;4954853;29;20193;-69
2022/11/24 01:16:41;;;;;;;0.30;0.30;;;8.10;99.90;;;;;;4957509;28;20216;-67
2022/11/24 01:19:06;;;;;;;0.50;0.50;;;8.10;99.90;;;;;;4958561;28;20708;-68
2022/11/24 01:21:32;;;;;;;1.17;1.17;;;7.90;99.90;;;;;;4958795;28;20211;-68
2022/11/24 01:23:57;;;;;;;0.30;0.30;;;8.00;99.90;;;;;;4958851;28;20181;-69
2022/11/24 01:26:23;;;;;;;0.30;0.30;;;8.00;99.90;;;;;;4958523;28;20194;-69
2022/11/24 01:28:53;;;;;;;1.23;0.93;;;7.90;99.90;;;;;;4958350;28;20180;-69
2022/11/24 01:31:19;;;;;;;0.30;0.30;;;7.90;99.90;;;;;;4958482;28;20203;-70
2022/11/24 01:33:44;;;;;;;0.30;0.30;;;8.00;99.90;;;;;;4958551;28;20669;-69
2022/11/24 01:36:10;;;;;;;0.40;0.40;;;8.00;99.90;;;;;;4958335;28;20223;-68
2022/11/24 01:38:36;;;;;;;0.83;0.53;;;8.00;99.90;;;;;;4958245;28;20181;-68
2022/11/24 01:41:07;;;;;;;0.30;0.30;;;8.10;99.90;;;;;;4958436;28;20355;-69
2022/11/24 01:43:33;;;;;;;0.55;0.55;;;8.20;99.90;;;;;;4958344;28;20255;-69
2022/11/24 01:46:36;;;;;;;1.50;1.40;;;8.20;99.90;;;;;;4958556;28;20200;-69
2022/11/24 01:49:11;;;;;;;0.50;0.50;;;8.20;99.90;;;;;;4958176;28;20171;-68
2022/11/24 01:51:47;;;;;;;0.63;0.63;;;8.10;99.90;;;;;;4958285;28;20180;-67
2022/11/24 01:54:26;;;;;;;0.50;0.50;;;8.00;99.90;;;;;;4958513;28;20171;-70
2022/11/24 01:56:57;;;;;;;0.30;0.30;;;7.80;99.90;;;;;;4958093;28;20217;-69
2022/11/24 01:59:24;;;;;;;0.30;0.30;;;7.80;99.90;;;;;;4957969;28;20188;-69
2022/11/24 02:01:51;;;;;;;0.30;0.30;;;7.90;99.90;;;;;;4958017;28;20279;-69
2022/11/24 02:04:22;;;;;;;0.40;0.40;;;7.90;99.90;;;;;;4957865;28;20198;-70
2022/11/24 02:06:51;;;;;;;0.40;0.40;;;8.00;99.90;;;;;;4958024;28;20334;-69
2022/11/24 02:09:28;;;;;;;2.15;1.27;;;8.00;99.90;;;;;;4957663;28;20171;-68
2022/11/24 02:11:55;;;;;;;0.30;0.30;;;8.10;99.90;;;;;;4957956;28;20211;-68
2022/11/24 02:14:23;;;;;;;0.65;0.65;;;8.00;99.90;;;;;;4956609;29;20647;-69
2022/11/24 02:16:50;;;;;;;0.30;0.30;;;8.00;99.90;;;;;;4957631;28;20219;-69
2022/11/24 02:19:36;;;;;;;0.40;0.40;;;8.10;99.90;;;;;;4957732;28;20179;-69
2022/11/24 02:22:02;;;;;;;0.40;0.40;;;8.20;99.90;;;;;;4957614;28;20569;-69
2022/11/24 02:24:40;;;;;;;0.30;0.30;;;8.10;99.90;;;;;;4957671;28;20254;-68
2022/11/24 02:27:06;;;;;;;6.63;0.60;;;8.10;99.90;;;;;;4957188;28;20227;-69
2022/11/24 02:29:32;;;;;;;1.17;1.00;;;8.10;99.90;;;;;;4957315;28;20169;-69
2022/11/24 02:32:02;;;;;;;1.27;1.27;;;8.10;99.90;;;;;;4957640;28;20765;-67
2022/11/24 02:34:27;;;;;;;0.30;0.30;;;8.10;99.90;;;;;;4957641;28;20172;-69
2022/11/24 02:36:53;;;;;;;0.30;0.30;;;8.10;99.90;;;;;;4957328;28;20197;-69
2022/11/24 02:39:19;;;;;;;0.30;0.30;;;8.20;99.90;;;;;;4957197;28;20257;-69
2022/11/24 02:41:52;;;;;;;1.33;0.83;;;8.30;99.90;;;;;;4957335;28;20665;-68
2022/11/24 02:44:20;;;;;;;0.85;0.85;;;8.20;99.90;;;;;;4957261;28;20176;-68
2022/11/24 02:46:46;;;;;;;8.88;1.20;;;8.20;99.90;;;;;;4957060;28;20199;-69
2022/11/24 02:49:12;;;;;;;6.80;1.57;;;8.30;99.90;;;;;;4956971;28;20199;-69
2022/11/24 02:51:37;;;;;;;0.60;0.60;;;8.20;99.90;;;;;;4957208;28;20181;-68
2022/11/24 02:54:03;;;;;;;0.30;0.30;;;8.10;99.90;;;;;;4957140;28;20196;-67
2022/11/24 02:56:28;;;;;;;0.30;0.30;;;7.90;99.90;;;;;;4956889;28;20212;-68
2022/11/24 02:58:54;;;;;;;0.40;0.40;;;7.90;99.90;;;;;;4956913;28;20183;-68
2022/11/24 03:01:20;;;;;;;1.20;1.13;;;7.90;99.90;;;;;;4956849;28;20204;-67
2022/11/24 03:03:45;;;;;;;3.27;0.93;;;7.90;99.90;;;;;;4956818;28;20172;-69
2022/11/24 03:06:11;;;;;;;0.63;0.60;;;7.80;99.90;;;;;;4956772;28;20271;-69
2022/11/24 03:08:37;;;;;;;0.30;0.30;;;7.80;99.90;;;;;;4956504;28;20415;-69
2022/11/24 03:11:02;;;;;;;0.37;0.37;;;7.60;99.90;;;;;;4957096;28;20179;-68
2022/11/24 03:13:28;;;;;;;0.30;0.30;;;7.50;99.90;;;;;;4956707;28;20259;-69
2022/11/24 03:15:54;;;;;;;0.70;0.70;;;7.50;99.90;;;;;;4956492;28;20672;-69
2022/11/24 03:18:19;;;;;;;0.60;0.60;;;7.50;99.90;;;;;;4955383;29;20538;-69
2022/11/24 03:20:45;;;;;;;0.40;0.40;;;7.60;99.90;;;;;;4956288;28;20681;-70
2022/11/24 03:23:10;;;;;;;1.13;0.63;;;7.60;99.90;;;;;;4956640;28;20176;-69
2022/11/24 03:25:36;;;;;;;0.70;0.70;;;7.50;99.90;;;;;;4956347;28;20189;-68
2022/11/24 03:28:02;;;;;;;1.80;0.70;;;7.40;99.90;;;;;;4956432;28;20176;-70
2022/11/24 03:30:28;;;;;;;0.50;0.50;;;7.50;99.90;;;;;;4956211;28;20186;-69
2022/11/24 03:32:53;;;;;;;0.30;0.30;;;7.60;99.90;;;;;;4956400;28;20411;-68
2022/11/24 03:35:21;;;;;;;5.93;1.17;;;7.70;99.90;;;;;;4956307;28;20226;-67
2022/11/24 03:37:46;;;;;;;0.40;0.40;;;7.80;99.90;;;;;;4956016;28;20202;-68
2022/11/24 03:40:12;;;;;;;0.50;0.50;;;7.70;99.90;;;;;;4955737;28;20253;-69
2022/11/24 03:42:39;;;;;;;0.40;0.40;;;7.80;99.90;;;;;;4956082;28;20467;-67
2022/11/24 03:45:05;;;;;;;0.40;0.40;;;7.90;99.90;;;;;;4956060;28;20197;-69
2022/11/24 03:47:31;;;;;;;4.95;0.93;;;8.00;99.90;;;;;;4956128;28;20185;-68
2022/11/24 03:49:57;;;;;;;0.30;0.30;;;8.00;99.90;;;;;;4955894;28;20172;-69
2022/11/24 03:52:25;;;;;;;1.67;1.67;;;7.90;99.90;;;;;;4955960;28;20216;-68
2022/11/24 03:54:51;;;;;;;0.40;0.40;;;7.90;99.90;;;;;;4955903;28;20183;-67
2022/11/24 03:57:17;;;;;;;2.42;0.85;;;8.00;99.90;;;;;;4955912;28;20230;-67
2022/11/24 03:59:42;;;;;;;0.40;0.40;;;8.00;99.90;;;;;;4955788;28;20203;-69
2022/11/24 04:02:08;;;;;;;0.57;0.57;;;8.00;99.90;;;;;;4955851;28;20291;-69
2022/11/24 04:04:33;;;;;;;1.03;0.93;;;8.00;99.90;;;;;;4955965;28;20200;-69
2022/11/24 04:06:59;;;;;;;0.50;0.50;;;8.00;99.90;;;;;;4955893;28;20565;-70
2022/11/24 04:09:25;;;;;;;0.30;0.30;;;7.90;99.90;;;;;;4955568;28;20246;-67
2022/11/24 04:14:35;;;;;;;0.95;0.70;;;7.90;99.90;;;;;;4955818;29;20185;-69
2022/11/24 04:17:03;;;;;;;0.53;0.53;;;7.90;99.90;;;;;;4955404;28;20301;-68
2022/11/24 04:19:28;;;;;;;3.33;0.85;;;7.80;99.90;;;;;;4955504;28;20177;-69
2022/11/24 04:21:54;;;;;;;0.40;0.40;;;7.90;99.90;;;;;;4955447;28;20572;-70
2022/11/24 04:24:20;;;;;;;0.30;0.30;;;8.00;99.90;;;;;;4955682;28;20407;-69
2022/11/24 04:26:45;;;;;;;5.43;1.77;;;8.00;99.90;;;;;;4955893;28;20251;-68
2022/11/24 04:29:11;;;;;;;0.40;0.40;;;8.10;99.90;;;;;;4955370;28;20199;-69
2022/11/24 04:31:37;;;;;;;1.70;1.60;;;8.10;99.90;;;;;;4955586;28;20181;-66
2022/11/24 04:34:02;;;;;;;0.40;0.40;;;8.10;99.90;;;;;;4955678;28;20671;-69
2022/11/24 04:36:28;;;;;;;5.00;1.00;;;8.00;99.90;;;;;;4955372;28;20195;-69
2022/11/24 04:38:53;;;;;;;1.07;0.97;;;8.00;99.90;;;;;;4955560;28;20176;-68
2022/11/24 04:41:19;;;;;;;5.97;1.10;;;8.00;99.90;;;;;;4955363;28;20387;-68
2022/11/24 04:43:48;;;;;;;0.40;0.40;;;8.00;99.90;;;;;;4955353;28;20175;-69
2022/11/24 04:46:14;;;;;;;0.40;0.40;;;8.00;99.90;;;;;;4953991;28;20198;-69
2022/11/24 04:48:40;;;;;;;0.30;0.30;;;8.00;99.90;;;;;;4955122;28;20169;-69
2022/11/24 04:51:06;;;;;;;6.80;1.38;;;8.00;99.90;;;;;;4958591;28;20183;-68
2022/11/24 04:53:32;;;;;;;0.30;0.30;;;8.00;99.90;;;;;;4959208;28;20545;-69
2022/11/24 04:55:58;;;;;;;0.40;0.40;;;8.00;99.90;;;;;;4959238;28;20227;-69
2022/11/24 04:58:23;;;;;;;0.70;0.70;;;7.90;99.90;;;;;;4959238;28;20656;-69
2022/11/24 05:00:49;;;;;;;0.40;0.40;;;7.70;99.90;;;;;;4958972;28;20473;-69
2022/11/24 05:03:14;;;;;;;0.33;0.33;;;7.60;99.90;;;;;;4959209;28;20620;-67
2022/11/24 05:05:40;;;;;;;0.30;0.30;;;7.60;99.90;;;;;;4958971;28;20281;-69
2022/11/24 05:08:06;;;;;;;0.37;0.37;;;7.70;99.90;;;;;;4959012;28;20181;-69
2022/11/24 05:10:34;;;;;;;0.50;0.50;;;7.60;99.90;;;;;;4958863;28;20315;-67
2022/11/24 05:13:01;;;;;;;0.30;0.30;;;7.50;99.90;;;;;;4958969;28;20173;-69
2022/11/24 05:15:27;;;;;;;4.00;1.25;;;7.60;99.90;;;;;;4958900;28;20725;-68
2022/11/24 05:17:53;;;;;;;0.40;0.40;;;7.60;99.90;;;;;;4958660;28;20271;-68
2022/11/24 05:20:19;;;;;;;1.25;0.52;;;7.60;99.90;;;;;;4957218;29;20815;-69
2022/11/24 05:22:45;;;;;;;0.45;0.45;;;7.60;99.90;;;;;;4958691;28;20177;-69
2022/11/24 05:25:11;;;;;;;0.70;0.63;;;7.60;99.90;;;;;;4958657;28;20258;-67
2022/11/24 05:27:38;;;;;;;0.30;0.30;;;7.60;99.90;;;;;;4958852;28;20211;-67
2022/11/24 05:30:04;;;;;;;1.30;1.30;;;7.70;99.90;;;;;;4958444;28;20630;-68
2022/11/24 05:32:30;;;;;;;1.27;0.65;;;7.70;99.90;;;;;;4958602;28;20618;-68
2022/11/24 05:34:57;;;;;;;2.30;1.90;;;7.70;99.90;;;;;;4958488;28;20268;-69
2022/11/24 05:37:24;;;;;;;0.50;0.50;;;7.70;99.90;;;;;;4958339;28;20198;-69
2022/11/24 05:39:50;;;;;;;0.75;0.60;;;7.80;99.90;;;;;;4958193;28;20177;-68
2022/11/24 05:44:59;;;;;;;0.30;0.30;;;7.70;99.90;;;;;;4958719;29;20219;-69
2022/11/24 05:47:25;;;;;;;0.60;0.60;;;7.70;99.90;;;;;;4958173;28;20195;-67
2022/11/24 05:49:51;;;;;;;1.80;0.90;;;7.80;99.90;;;;;;4958242;28;20579;-69
2022/11/24 05:52:17;;;;;;;2.20;0.80;;;7.80;99.90;;;;;;4958379;28;20179;-69
2022/11/24 05:54:42;;;;;;;0.30;0.30;;;7.70;99.90;;;;;;4958226;28;20217;-69
2022/11/24 05:57:08;;;;;;;0.60;0.60;;;7.70;99.90;;;;;;4958112;28;20232;-68
2022/11/24 05:59:34;;;;;;;0.77;0.77;;;7.60;99.90;;;;;;4957926;28;20179;-69
2022/11/24 06:02:00;;;;;;;0.83;0.73;;;7.50;99.90;;;;;;4957553;28;20873;-67
2022/11/24 06:04:25;;;;;;;4.63;2.17;;;7.50;99.90;;;;;;4958010;28;20647;-67
2022/11/24 06:06:51;;;;;;;1.07;0.97;;;7.40;99.90;;;;;;4957766;28;20504;-69
2022/11/24 06:09:17;;;;;;;0.30;0.30;;;7.50;99.90;;;;;;4957676;28;20313;-69
2022/11/24 06:11:42;;;;;;;0.30;0.30;;;7.50;99.90;;;;;;4957987;28;20623;-68
2022/11/24 06:14:09;;;;;;;2.87;1.80;;;7.40;99.90;;;;;;4957946;28;20211;-69
2022/11/24 06:16:35;;;;;;;0.40;0.40;;;7.40;99.90;;;;;;4957725;28;20212;-66
2022/11/24 06:19:00;;;;;;;0.30;0.30;;;7.40;99.90;;;;;;4957494;28;20184;-69
2022/11/24 06:21:27;;;;;;;0.60;0.60;;;7.30;99.90;;;;;;4957644;28;20231;-67
2022/11/24 06:23:52;;;;;;;0.30;0.30;;;7.30;99.90;;;;;;4957632;28;20207;-69
2022/11/24 06:26:18;;;;;;;0.30;0.30;;;7.40;99.90;;;;;;4957513;28;20327;-67
2022/11/24 06:28:44;;;;;;;0.50;0.50;;;7.20;99.90;;;;;;4957325;28;20539;-67
2022/11/24 06:31:10;;;;;;;0.40;0.40;;;7.10;99.90;;;;;;4957478;28;20518;-67
2022/11/24 06:33:36;;;;;;;0.30;0.30;;;7.20;99.90;;;;;;4957450;28;20260;-69
2022/11/24 06:36:04;;;;;;;0.30;0.30;;;7.20;99.90;;;;;;4957374;28;20574;-67
2022/11/24 06:38:31;;;;;;;0.40;0.40;;;7.30;99.90;;;;;;4957235;28;20181;-68
2022/11/24 06:41:10;;;;;;;5.60;1.35;;;7.20;99.90;;;;;;4957435;28;20271;-70
2022/11/24 06:43:35;;;;;;;1.20;1.20;;;7.20;99.90;;;;;;4957471;28;20176;-68
2022/11/24 06:46:02;;;;;;;0.90;0.90;;;7.30;99.90;;;;;;4957133;28;20205;-67
2022/11/24 06:48:28;;;;;;;0.40;0.40;;;7.30;99.90;;;;;;4957254;28;20444;-68
2022/11/24 06:50:59;;;;;;;0.85;0.85;;;7.30;99.90;;;;;;4957114;28;20188;-68
2022/11/24 06:53:25;;;;;;;0.50;0.50;;;7.30;99.90;;;;;;4957311;28;20187;-69
2022/11/24 06:55:51;;;;;;;0.50;0.50;;;7.30;99.90;;;;;;4957060;28;20205;-69
2022/11/24 06:58:17;;;;;;;1.35;1.35;;;7.40;99.90;;;;;;4957192;28;20777;-68
2022/11/24 07:00:43;;;;;;;0.40;0.40;;;7.50;99.90;;;;;;4956757;28;20205;-69
2022/11/24 07:03:15;;;;;;;4.00;1.43;;;7.50;99.90;;;;;;4955719;29;20936;-69
2022/11/24 07:05:41;;;;;;;0.30;0.30;;;7.40;99.90;;;;;;4955617;28;20200;-69
2022/11/24 07:08:07;;;;;;;0.35;0.35;;;7.40;99.90;;;;;;4956719;28;20610;-68
2022/11/24 07:10:33;;;;;;;0.30;0.30;;;7.30;99.90;;;;;;4956554;28;20315;-68
2022/11/24 07:12:59;;;;;;;0.40;0.40;;;7.40;99.90;;;;;;4955834;28;20293;-70
2022/11/24 07:15:25;;;;;;;0.95;0.95;;;7.50;99.90;;;;;;4956574;28;20182;-68
2022/11/24 07:17:51;;;;;;;1.52;1.50;;;7.60;99.90;;;;;;4955243;29;20204;-68
2022/11/24 07:20:16;;;;;;;0.30;0.30;;;7.60;99.90;;;;;;4956327;28;20175;-68
2022/11/24 07:22:42;;;;;;;1.07;0.70;;;7.60;99.90;;;;;;4956666;28;20267;-68
2022/11/24 07:25:09;;;;;;;7.80;1.90;;;7.60;99.90;;;;;;4956339;28;20221;-67
2022/11/24 07:27:35;;;;;;;0.30;0.30;;;7.50;99.90;;;;;;4956401;28;20642;-69
2022/11/24 07:30:00;;;;;;;0.60;0.60;;;7.50;99.90;;;;;;4956410;28;20188;-68
2022/11/24 07:32:26;;;;;;;0.63;0.63;;;7.40;99.90;;;;;;4956451;28;20402;-68
2022/11/24 07:34:52;;;;;;;0.30;0.30;;;7.40;99.90;;;;;;4956441;28;20900;-68
2022/11/24 07:37:17;;;;;;;1.13;1.13;;;7.50;99.90;;;;;;4956147;28;20191;-67
2022/11/24 07:39:43;;;;;;;0.77;0.70;;;7.50;99.90;;;;;;4956184;28;20177;-68
2022/11/24 07:42:10;;;;;;;0.30;0.30;;;7.60;99.90;;;;;;4956117;28;20218;-67
2022/11/24 07:44:36;;;;;;;9.30;1.02;;;7.50;99.90;;;;;;4954932;29;20637;-68
2022/11/24 07:47:01;;;;;;;0.30;0.30;;;7.40;99.90;;;;;;4956135;28;20194;-69
2022/11/24 07:49:27;;;;;;;0.37;0.37;;;7.20;99.90;;;;;;4955904;28;20534;-67
2022/11/24 07:51:52;;;;;;;0.40;0.40;;;6.90;99.90;;;;;;4956176;28;20175;-69
2022/11/24 07:54:18;;;;;;;0.30;0.30;;;7.00;99.90;;;;;;4956379;28;20644;-68
2022/11/24 07:56:47;;;;;;;0.77;0.50;;;7.00;99.90;;;;;;4955896;28;20194;-70
2022/11/24 07:59:13;;;;;;;0.73;0.50;;;7.00;99.90;;;;;;4955715;28;20201;-68
2022/11/24 08:01:38;;;;;;;0.30;0.30;;;7.00;99.90;;;;;;4956385;28;20203;-67
2022/11/24 08:04:04;;;;;;;1.43;1.00;;;7.10;99.90;;;;;;4955981;28;20222;-69
2022/11/24 08:06:30;;;;;;;0.30;0.30;;;7.10;99.90;;;;;;4955892;28;20195;-67
2022/11/24 08:08:56;;;;;;;0.30;0.30;;;7.10;99.90;;;;;;4955427;28;20178;-70
2022/11/24 08:11:21;;;;;;;0.60;0.45;;;7.10;99.90;;;;;;4955744;28;20265;-67
2022/11/24 08:13:47;;;;;;;0.30;0.30;;;7.10;99.90;;;;;;4955897;28;20258;-69
2022/11/24 08:16:17;;;;;;;0.40;0.40;;;7.20;99.90;;;;;;4954274;28;20630;-67
2022/11/24 08:18:43;;;;;;;0.30;0.30;;;7.20;99.90;;;;;;4955521;28;20178;-69
2022/11/24 08:21:13;;;;;;;0.40;0.40;;;7.20;99.90;;;;;;4955660;28;20237;-68
2022/11/24 08:23:39;;;;;;;0.30;0.30;;;7.20;99.90;;;;;;4955551;28;20171;-69
2022/11/24 08:26:07;;;;;;;0.30;0.30;;;7.20;99.90;;;;;;4955146;28;20199;-68
2022/11/24 08:28:33;;;;;;;0.40;0.40;;;7.20;99.90;;;;;;4955542;28;20440;-68
2022/11/24 08:31:10;;;;;;;0.30;0.30;;;7.20;99.90;;;;;;4955591;28;20658;-67
2022/11/24 08:33:36;;;;;;;0.30;0.30;;;7.10;99.90;;;;;;4955567;28;20398;-69
2022/11/24 08:36:07;;;;;;;0.30;0.30;;;7.10;99.90;;;;;;4955346;28;20547;-69
2022/11/24 08:38:33;;;;;;;0.40;0.40;;;7.20;99.90;;;;;;4955288;28;20188;-68
2022/11/24 08:41:04;;;;;;;0.97;0.97;;;7.20;99.90;;;;;;4955402;28;20668;-67
2022/11/24 08:43:30;;;;;;;0.30;0.30;;;7.30;99.90;;;;;;4955567;28;20411;-67
2022/11/24 08:46:01;;;;;;;0.40;0.40;;;7.40;99.90;;;;;;4955382;28;20197;-67
2022/11/24 08:48:27;;;;;;;0.40;0.40;;;7.50;99.90;;;;;;4955327;28;20179;-68
2022/11/24 08:50:53;;;;;;;1.13;1.13;;;7.70;99.90;;;;;;4955147;28;20179;-69
2022/11/24 08:53:18;;;;;;;0.40;0.40;;;7.70;99.90;;;;;;4955330;28;20182;-68
2022/11/24 08:55:44;;;;;;;0.40;0.40;;;7.60;99.90;;;;;;4955441;28;20200;-69
2022/11/24 08:58:09;;;;;;;0.30;0.30;;;7.70;99.90;;;;;;4955374;28;20176;-67
2022/11/24 09:00:35;;;;;;;0.30;0.30;;;7.70;99.90;;;;;;4955165;28;20207;-68
2022/11/24 09:03:01;;;;;;;0.30;0.30;;;7.70;99.90;;;;;;4955303;28;20175;-68
2022/11/24 09:05:26;;;;;;;0.30;0.30;;;7.90;99.90;;;;;;4955034;28;20210;-66
2022/11/24 09:07:52;;;;;;;0.30;0.30;;;8.00;99.90;;;;;;4955075;29;20706;-69
2022/11/24 09:10:18;;;;;;;0.90;0.87;;;7.90;99.90;;;;;;4955019;28;20177;-68
2022/11/24 09:12:47;;;;;;;0.40;0.40;;;7.80;99.90;;;;;;4955187;28;20226;-68
2022/11/24 09:15:15;;;;;;;0.30;0.30;;;7.80;99.90;;;;;;4955168;28;20782;-67
2022/11/24 09:17:41;;;;;;;0.32;0.32;;;7.90;99.90;;;;;;4955495;28;20194;-69
2022/11/24 09:20:07;;;;;;;0.35;0.35;;;7.90;99.90;;;;;;4954687;28;20176;-69
2022/11/24 09:22:32;;;;;;;0.80;0.80;;;7.90;99.90;;;;;;4954704;28;20236;-69
2022/11/24 09:24:58;;;;;;;0.40;0.40;;;8.00;99.90;;;;;;4955085;28;20430;-67
2022/11/24 09:27:24;;;;;;;0.30;0.30;;;8.00;99.90;;;;;;4954890;28;20665;-70
2022/11/24 09:29:49;;;;;;;0.30;0.30;;;8.00;99.90;;;;;;4954833;28;20173;-69
2022/11/24 09:32:15;;;;;;;0.30;0.30;;;8.10;99.90;;;;;;4955113;28;20253;-67
2022/11/24 09:34:41;;;;;;;0.30;0.30;;;8.20;99.90;;;;;;4955184;28;20202;-67
2022/11/24 09:37:06;;;;;;;0.30;0.30;;;8.20;99.90;;;;;;4955123;28;20196;-70
2022/11/24 09:39:32;;;;;;;0.93;0.87;;;8.30;99.90;;;;;;4958241;28;20228;-69
2022/11/24 09:42:23;;;;;;;0.30;0.30;;;8.40;99.90;;;;;;4958247;28;20312;-67
2022/11/24 09:44:58;;;;;;;0.30;0.30;;;8.40;99.90;;;;;;4958576;28;20172;-69
2022/11/24 09:47:51;;;;;;;0.40;0.40;;;8.40;99.90;;;;;;4958397;28;20195;-69
2022/11/24 09:50:28;;;;;;;0.30;0.30;;;8.20;99.90;;;;;;4958225;28;20176;-69
2022/11/24 09:53:04;;;;;;;0.30;0.30;;;8.30;99.90;;;;;;4958338;28;20179;-69
2022/11/24 09:55:46;;;;;;;0.40;0.40;;;8.40;99.90;;;;;;4958439;28;20185;-69
2022/11/24 09:58:42;;;;;;;1.95;1.80;;;8.50;99.90;;;;;;4958099;28;20220;-69
2022/11/24 10:01:20;;;;;;;0.60;0.60;;;8.50;99.90;;;;;;4958143;28;20682;-68
2022/11/24 10:03:52;;;;;;;0.40;0.40;;;8.60;99.90;;;;;;4958172;28;20170;-69
2022/11/24 10:06:22;;;;;;;0.40;0.40;;;8.50;99.90;;;;;;4957988;28;20584;-69
2022/11/24 10:09:03;;;;;;;0.40;0.40;;;8.40;99.90;;;;;;4958042;28;20173;-67
2022/11/24 10:11:51;;;;;;;0.40;0.40;;;8.70;99.90;;;;;;4957999;28;20312;-69
2022/11/24 10:14:41;;;;;;;24.38;1.00;;;9.00;99.90;;;;;;4948560;29;20248;-70
2022/11/24 10:17:40;;;;;;;0.40;0.40;;;9.50;99.90;;;;;;4956545;28;20264;-68
2022/11/24 10:20:26;;;;;;;0.40;0.40;;;9.80;99.90;;;;;;4957443;28;20174;-68
2022/11/24 10:23:06;;;;;;;0.30;0.30;;;10.10;99.20;;;;;;4957863;28;20166;-70
2022/11/24 10:25:41;;;;;;;0.98;0.98;;;10.20;98.90;;;;;;4957585;28;20236;-68
2022/11/24 10:28:13;;;;;;;0.50;0.50;;;10.10;98.80;;;;;;4957498;28;20725;-70
2022/11/24 10:30:39;;;;;;;0.50;0.40;;;10.00;98.70;;;;;;4957264;28;20224;-68
2022/11/24 10:33:18;;;;;;;0.40;0.40;;;10.00;98.60;;;;;;4957502;28;20170;-69
2022/11/24 10:35:56;;;;;;;0.57;0.57;;;9.90;99.60;;;;;;4957530;28;20198;-69
2022/11/24 10:38:38;;;;;;;0.40;0.40;;;10.00;98.70;;;;;;4957607;28;20662;-68
2022/11/24 10:41:15;;;;;;;5.95;0.88;;;9.80;99.00;;;;;;4957400;28;20613;-70
2022/11/24 10:43:42;;;;;;;0.30;0.30;;;9.80;99.70;;;;;;4957407;28;20201;-68
2022/11/24 10:46:14;;;;;;;0.47;0.47;;;9.90;99.90;;;;;;4957129;28;20312;-68
2022/11/24 10:48:46;;;;;;;27.65;1.25;;;9.90;99.20;;;;;;4956914;28;20158;-70
2022/11/24 10:51:49;;;;;;;0.30;0.30;;;9.70;99.50;;;;;;4957350;28;20205;-68
2022/11/24 10:54:21;;;;;;;0.60;0.60;;;9.60;99.70;;;;;;4957111;29;20177;-68
2022/11/24 10:56:50;;;;;;;0.68;0.68;;;9.60;99.90;;;;;;4956990;28;20193;-69
2022/11/24 10:59:33;;;;;;;0.50;0.50;;;9.60;99.90;;;;;;4956892;28;20170;-70
2022/11/24 11:01:59;;;;;;;0.50;0.50;;;9.70;99.90;;;;;;4957069;28;20212;-70
2022/11/24 11:04:32;;;;;;;1.60;1.50;;;9.90;99.90;;;;;;4956967;28;20170;-70
2022/11/24 11:07:18;;;;;;;0.30;0.30;;;10.00;99.00;;;;;;4956942;28;20194;-69
2022/11/24 11:09:45;;;;;;;0.57;0.47;;;10.10;98.90;;;;;;4956785;28;20222;-69
2022/11/24 11:12:20;;;;;;;0.60;0.60;;;10.20;98.00;;;;;;4957186;28;20662;-69
2022/11/24 11:14:47;;;;;;;0.95;0.95;;;10.00;97.10;;;;;;4956646;28;20184;-68
2022/11/24 11:17:34;;;;;;;0.40;0.40;;;10.30;97.90;;;;;;4955164;28;20217;-69
2022/11/24 11:20:17;;;;;;;0.30;0.30;;;10.20;97.30;;;;;;4956351;28;20177;-70
2022/11/24 11:22:46;;;;;;;0.60;0.60;;;10.20;97.60;;;;;;4957019;28;20192;-69
2022/11/24 11:25:12;;;;;;;0.47;0.47;;;10.20;97.60;;;;;;4956424;28;20174;-67
2022/11/24 11:27:39;;;;;;;0.30;0.30;;;10.30;97.70;;;;;;4956449;28;20643;-69
2022/11/24 11:30:23;;;;;;;2.05;1.95;;;10.30;97.30;;;;;;4956409;28;20209;-68
2022/11/24 11:32:51;;;;;;;0.30;0.30;;;10.40;97.50;;;;;;4956494;28;20184;-70
2022/11/24 11:35:17;;;;;;;0.30;0.30;;;10.60;97.70;;;;;;4956226;28;20178;-69
2022/11/24 11:37:44;;;;;;;1.10;1.10;;;10.50;96.30;;;;;;4956306;28;20260;-68
2022/11/24 11:40:18;;;;;;;5.75;0.93;;;10.50;96.60;;;;;;4955888;28;20173;-68
2022/11/24 11:42:48;;;;;;;0.40;0.40;;;10.30;96.60;;;;;;4956359;28;20583;-69
2022/11/24 11:45:44;;;;;;;0.38;0.38;;;10.40;97.20;;;;;;4956321;28;20640;-68
2022/11/24 11:48:31;;;;;;;0.30;0.30;;;10.50;96.60;;;;;;4954851;29;20190;-68
2022/11/24 11:51:21;;;;;;;0.98;0.98;;;10.60;96.70;;;;;;4956137;28;20205;-69
2022/11/24 11:54:02;;;;;;;0.30;0.30;;;10.80;96.30;;;;;;4956160;28;20257;-68
2022/11/24 11:56:31;;;;;;;0.30;0.30;;;11.00;96.80;;;;;;4955924;28;20666;-69
2022/11/24 11:59:21;;;;;;;0.30;0.30;;;11.00;96.30;;;;;;4955389;28;20259;-68
2022/11/24 12:02:07;;;;;;;1.05;1.05;;;11.00;96.30;;;;;;4956018;28;20197;-69
2022/11/24 12:04:52;;;;;;;1.00;0.55;;;10.70;96.00;;;;;;4955866;28;20506;-67
2022/11/24 12:07:26;;;;;;;0.50;0.50;;;10.50;96.30;;;;;;4954483;28;20211;-68
2022/11/24 12:10:13;;;;;;;0.40;0.40;;;10.40;96.40;;;;;;4955683;28;20173;-67
2022/11/24 12:12:45;;;;;;;0.80;0.80;;;10.40;96.40;;;;;;4955735;28;20260;-70
2022/11/24 12:15:18;;;;;;;3.17;2.90;;;10.40;97.00;;;;;;4955701;28;20204;-67
2022/11/24 12:17:56;;;;;;;0.30;0.30;;;10.30;97.10;;;;;;4955623;28;20196;-69
2022/11/24 12:20:46;;;;;;;0.40;0.40;;;10.30;97.30;;;;;;4954302;29;20655;-68
2022/11/24 12:23:50;;;;;;;0.30;0.30;;;10.30;96.80;;;;;;4955619;28;20212;-68
2022/11/24 12:26:27;;;;;;;0.40;0.40;;;10.00;97.00;;;;;;4955354;28;20189;-69
2022/11/24 12:29:01;;;;;;;0.30;0.30;;;9.70;98.30;;;;;;4955533;28;20183;-67
2022/11/24 12:31:41;;;;;;;0.30;0.30;;;9.60;98.70;;;;;;4955496;28;20176;-70
2022/11/24 12:34:28;;;;;;;1.85;1.15;;;9.50;98.80;;;;;;4955464;28;20173;-69
2022/11/24 12:37:30;;;;;;;0.88;0.88;;;9.50;99.10;;;;;;4955411;28;20189;-68
2022/11/24 12:40:01;;;;;;;0.32;0.32;;;9.60;99.00;;;;;;4955234;29;20181;-70
2022/11/24 12:42:50;;;;;;;0.40;0.40;;;9.60;98.10;;;;;;4955249;28;20385;-68
2022/11/24 12:45:21;;;;;;;1.10;1.10;;;9.50;98.40;;;;;;4955540;28;20165;-70
2022/11/24 12:48:04;;;;;;;0.38;0.38;;;9.40;98.70;;;;;;4955335;28;20173;-68
2022/11/24 12:50:37;;;;;;;0.30;0.30;;;9.20;98.60;;;;;;4955281;28;20252;-67
2022/11/24 12:53:22;;;;;;;0.30;0.30;;;9.10;99.00;;;;;;4955723;28;20256;-68
2022/11/24 12:55:48;;;;;;;0.30;0.30;;;9.00;99.50;;;;;;4955334;28;20197;-69
2022/11/24 12:58:24;;;;;;;4.85;0.98;;;9.00;99.70;;;;;;4955205;28;20578;-67
2022/11/24 13:00:58;;;;;;;0.40;0.40;;;9.20;99.90;;;;;;4955037;28;20200;-69
2022/11/24 13:04:08;;;;;;;0.30;0.30;;;9.40;99.90;;;;;;4955388;28;20169;-67
2022/11/24 13:06:55;;;;;;;0.50;0.50;;;9.80;99.70;;;;;;4940149;28;20201;-69
2022/11/24 13:09:21;;;;;;;0.60;0.60;;;10.00;97.70;;;;;;4955245;28;20177;-69
2022/11/24 13:11:51;;;;;;;0.30;0.30;;;10.10;97.20;;;;;;4956391;28;20174;-70
2022/11/24 13:14:34;;;;;;;0.50;0.50;;;10.00;97.20;;;;;;4957660;29;20180;-70